sensor_id;sensor_type;location;lat;lon;timestamp;temperature;humidity
26655;DHT22;14278;50.784;4.630;2023-03-02T00:00:16;1.90;99.90
26655;DHT22;14278;50.784;4.630;2023-03-02T00:02:45;1.80;99.90
26655;DHT22;14278;50.784;4.630;2023-03-02T00:05:20;1.80;99.90
26655;DHT22;14278;50.784;4.630;2023-03-02T00:07:47;1.80;99.90
26655;DHT22;14278;50.784;4.630;2023-03-02T00:10:13;2.00;99.90
26655;DHT22;14278;50.784;4.630;2023-03-02T00:12:42;1.90;99.90
26655;DHT22;14278;50.784;4.630;2023-03-02T00:15:16;2.00;99.90
26655;DHT22;14278;50.784;4.630;2023-03-02T00:17:52;2.00;99.90
26655;DHT22;14278;50.784;4.630;2023-03-02T00:20:21;2.00;99.90
26655;DHT22;14278;50.784;4.630;2023-03-02T00:22:57;1.80;99.90
26655;DHT22;14278;50.784;4.630;2023-03-02T00:25:49;1.70;99.90
26655;DHT22;14278;50.784;4.630;2023-03-02T00:28:37;1.60;99.90
26655;DHT22;14278;50.784;4.630;2023-03-02T00:31:40;1.70;99.90
26655;DHT22;14278;50.784;4.630;2023-03-02T00:34:08;1.80;99.90
26655;DHT22;14278;50.784;4.630;2023-03-02T00:39:55;2.00;99.90
26655;DHT22;14278;50.784;4.630;2023-03-02T00:42:36;2.00;99.90
26655;DHT22;14278;50.784;4.630;2023-03-02T00:48:38;1.70;99.90
26655;DHT22;14278;50.784;4.630;2023-03-02T00:51:17;1.80;99.90
26655;DHT22;14278;50.784;4.630;2023-03-02T00:53:55;1.90;99.90
26655;DHT22;14278;50.784;4.630;2023-03-02T00:56:26;1.90;99.90
26655;DHT22;14278;50.784;4.630;2023-03-02T00:59:05;1.70;99.90
26655;DHT22;14278;50.784;4.630;2023-03-02T01:02:00;1.50;99.90
26655;DHT22;14278;50.784;4.630;2023-03-02T01:04:36;1.60;99.90
26655;DHT22;14278;50.784;4.630;2023-03-02T01:07:15;1.50;99.90
26655;DHT22;14278;50.784;4.630;2023-03-02T01:10:05;2.10;99.90
26655;DHT22;14278;50.784;4.630;2023-03-02T01:16:07;2.30;99.90
26655;DHT22;14278;50.784;4.630;2023-03-02T01:18:41;1.70;99.90
26655;DHT22;14278;50.784;4.630;2023-03-02T01:21:54;1.70;99.90
26655;DHT22;14278;50.784;4.630;2023-03-02T01:27:51;1.60;99.90
26655;DHT22;14278;50.784;4.630;2023-03-02T01:30:56;1.60;99.90
26655;DHT22;14278;50.784;4.630;2023-03-02T01:33:30;1.60;99.90
26655;DHT22;14278;50.784;4.630;2023-03-02T01:39:11;2.00;99.90
26655;DHT22;14278;50.784;4.630;2023-03-02T01:42:06;1.90;99.90
26655;DHT22;14278;50.784;4.630;2023-03-02T01:44:53;1.70;99.90
26655;DHT22;14278;50.784;4.630;2023-03-02T01:47:47;1.70;99.90
26655;DHT22;14278;50.784;4.630;2023-03-02T01:50:30;1.90;99.90
26655;DHT22;14278;50.784;4.630;2023-03-02T01:56:26;1.60;99.90
26655;DHT22;14278;50.784;4.630;2023-03-02T02:02:42;1.70;99.90
26655;DHT22;14278;50.784;4.630;2023-03-02T02:05:23;1.80;99.90
26655;DHT22;14278;50.784;4.630;2023-03-02T02:08:34;1.80;99.90
26655;DHT22;14278;50.784;4.630;2023-03-02T02:11:34;2.00;99.90
26655;DHT22;14278;50.784;4.630;2023-03-02T02:18:07;2.10;99.90
26655;DHT22;14278;50.784;4.630;2023-03-02T02:20:46;2.10;99.90
26655;DHT22;14278;50.784;4.630;2023-03-02T02:23:45;1.90;99.90
26655;DHT22;14278;50.784;4.630;2023-03-02T02:26:46;1.70;99.90
26655;DHT22;14278;50.784;4.630;2023-03-02T02:29:51;1.50;99.90
26655;DHT22;14278;50.784;4.630;2023-03-02T02:32:52;1.40;99.90
26655;DHT22;14278;50.784;4.630;2023-03-02T02:36:21;1.40;99.90
26655;DHT22;14278;50.784;4.630;2023-03-02T02:39:16;1.70;99.90
26655;DHT22;14278;50.784;4.630;2023-03-02T02:42:04;1.70;99.90
26655;DHT22;14278;50.784;4.630;2023-03-02T02:48:10;1.90;99.90
26655;DHT22;14278;50.784;4.630;2023-03-02T02:50:48;1.80;99.90
26655;DHT22;14278;50.784;4.630;2023-03-02T02:53:51;1.50;99.90
26655;DHT22;14278;50.784;4.630;2023-03-02T03:00:01;1.80;99.90
26655;DHT22;14278;50.784;4.630;2023-03-02T03:02:46;1.80;99.90
26655;DHT22;14278;50.784;4.630;2023-03-02T03:05:24;1.50;99.90
26655;DHT22;14278;50.784;4.630;2023-03-02T03:08:47;1.80;99.90
26655;DHT22;14278;50.784;4.630;2023-03-02T03:11:55;1.70;99.90
26655;DHT22;14278;50.784;4.630;2023-03-02T03:14:56;1.60;99.90
26655;DHT22;14278;50.784;4.630;2023-03-02T03:17:28;1.60;99.90
26655;DHT22;14278;50.784;4.630;2023-03-02T03:20:17;1.50;99.90
26655;DHT22;14278;50.784;4.630;2023-03-02T03:22:53;1.20;99.90
26655;DHT22;14278;50.784;4.630;2023-03-02T03:28:55;1.10;99.90
26655;DHT22;14278;50.784;4.630;2023-03-02T03:31:37;1.30;99.90
26655;DHT22;14278;50.784;4.630;2023-03-02T03:34:11;1.40;99.90
26655;DHT22;14278;50.784;4.630;2023-03-02T03:36:54;1.40;99.90
26655;DHT22;14278;50.784;4.630;2023-03-02T03:39:38;1.20;99.90
26655;DHT22;14278;50.784;4.630;2023-03-02T03:42:21;0.90;99.90
26655;DHT22;14278;50.784;4.630;2023-03-02T03:44:55;0.70;99.90
26655;DHT22;14278;50.784;4.630;2023-03-02T03:47:44;0.50;99.90
26655;DHT22;14278;50.784;4.630;2023-03-02T03:50:56;0.40;99.90
26655;DHT22;14278;50.784;4.630;2023-03-02T03:53:50;0.50;99.90
26655;DHT22;14278;50.784;4.630;2023-03-02T03:56:41;0.50;99.90
26655;DHT22;14278;50.784;4.630;2023-03-02T03:59:38;0.50;99.90
26655;DHT22;14278;50.784;4.630;2023-03-02T04:02:06;0.80;99.90
26655;DHT22;14278;50.784;4.630;2023-03-02T04:04:42;1.00;99.90
26655;DHT22;14278;50.784;4.630;2023-03-02T04:07:31;0.80;99.90
26655;DHT22;14278;50.784;4.630;2023-03-02T04:10:41;0.80;99.90
26655;DHT22;14278;50.784;4.630;2023-03-02T04:13:35;0.60;99.90
26655;DHT22;14278;50.784;4.630;2023-03-02T04:16:32;0.50;99.90
26655;DHT22;14278;50.784;4.630;2023-03-02T04:19:41;0.40;99.90
26655;DHT22;14278;50.784;4.630;2023-03-02T04:22:31;0.60;99.90
26655;DHT22;14278;50.784;4.630;2023-03-02T04:25:46;0.60;99.90
26655;DHT22;14278;50.784;4.630;2023-03-02T04:28:41;0.70;99.90
26655;DHT22;14278;50.784;4.630;2023-03-02T04:37:24;0.50;99.90
26655;DHT22;14278;50.784;4.630;2023-03-02T04:40:36;0.60;99.90
26655;DHT22;14278;50.784;4.630;2023-03-02T04:43:40;0.50;99.90
26655;DHT22;14278;50.784;4.630;2023-03-02T04:47:07;0.40;99.90
26655;DHT22;14278;50.784;4.630;2023-03-02T04:49:54;0.20;99.90
26655;DHT22;14278;50.784;4.630;2023-03-02T04:52:48;0.40;99.90
26655;DHT22;14278;50.784;4.630;2023-03-02T04:55:40;0.40;99.90
26655;DHT22;14278;50.784;4.630;2023-03-02T04:58:34;0.10;99.90
26655;DHT22;14278;50.784;4.630;2023-03-02T05:04:53;0.20;99.90
26655;DHT22;14278;50.784;4.630;2023-03-02T05:07:47;0.20;99.90
26655;DHT22;14278;50.784;4.630;2023-03-02T05:10:59;0.10;99.90
26655;DHT22;14278;50.784;4.630;2023-03-02T05:14:15;0.40;99.90
26655;DHT22;14278;50.784;4.630;2023-03-02T05:17:13;0.60;99.90
26655;DHT22;14278;50.784;4.630;2023-03-02T05:26:00;0.40;99.90
26655;DHT22;14278;50.784;4.630;2023-03-02T05:44:47;0.10;99.90
26655;DHT22;14278;50.784;4.630;2023-03-02T05:51:23;0.20;99.90
26655;DHT22;14278;50.784;4.630;2023-03-02T05:54:16;0.30;99.90
26655;DHT22;14278;50.784;4.630;2023-03-02T06:07:24;0.60;99.90
26655;DHT22;14278;50.784;4.630;2023-03-02T06:10:57;0.60;99.90
26655;DHT22;14278;50.784;4.630;2023-03-02T06:17:21;0.70;99.90
26655;DHT22;14278;50.784;4.630;2023-03-02T06:20:45;0.40;99.90
26655;DHT22;14278;50.784;4.630;2023-03-02T06:23:40;0.00;99.90
26655;DHT22;14278;50.784;4.630;2023-03-02T06:30:01;0.00;99.90
26655;DHT22;14278;50.784;4.630;2023-03-02T06:33:00;0.10;99.90
26655;DHT22;14278;50.784;4.630;2023-03-02T06:49:18;0.60;99.90
26655;DHT22;14278;50.784;4.630;2023-03-02T06:56:09;0.90;99.90
26655;DHT22;14278;50.784;4.630;2023-03-02T06:58:49;0.90;99.90
26655;DHT22;14278;50.784;4.630;2023-03-02T07:01:23;1.60;99.90
26655;DHT22;14278;50.784;4.630;2023-03-02T07:07:25;2.30;99.90
26655;DHT22;14278;50.784;4.630;2023-03-02T07:10:41;2.90;99.90
26655;DHT22;14278;50.784;4.630;2023-03-02T07:13:30;3.60;99.90
26655;DHT22;14278;50.784;4.630;2023-03-02T07:23:52;5.70;99.90
26655;DHT22;14278;50.784;4.630;2023-03-02T08:16:19;7.40;99.90
26655;DHT22;14278;50.784;4.630;2023-03-02T08:18:57;7.10;99.90
26655;DHT22;14278;50.784;4.630;2023-03-02T08:21:24;7.10;99.90
26655;DHT22;14278;50.784;4.630;2023-03-02T08:27:09;5.30;99.90
26655;DHT22;14278;50.784;4.630;2023-03-02T08:29:36;3.90;99.90
26655;DHT22;14278;50.784;4.630;2023-03-02T08:39:10;5.90;99.90
26655;DHT22;14278;50.784;4.630;2023-03-02T08:41:51;8.10;99.90
26655;DHT22;14278;50.784;4.630;2023-03-02T08:44:18;8.10;99.90
26655;DHT22;14278;50.784;4.630;2023-03-02T08:46:49;7.50;99.90
26655;DHT22;14278;50.784;4.630;2023-03-02T08:55:55;5.60;99.90
26655;DHT22;14278;50.784;4.630;2023-03-02T08:59:11;4.80;99.90
26655;DHT22;14278;50.784;4.630;2023-03-02T09:02:14;4.80;99.90
26655;DHT22;14278;50.784;4.630;2023-03-02T09:08:27;5.80;99.90
26655;DHT22;14278;50.784;4.630;2023-03-02T09:11:32;6.20;99.90
26655;DHT22;14278;50.784;4.630;2023-03-02T09:13:58;6.20;99.90
26655;DHT22;14278;50.784;4.630;2023-03-02T09:16:45;6.10;99.90
26655;DHT22;14278;50.784;4.630;2023-03-02T09:19:16;5.10;99.90
26655;DHT22;14278;50.784;4.630;2023-03-02T09:22:16;5.20;99.90
26655;DHT22;14278;50.784;4.630;2023-03-02T09:24:54;6.20;99.90
26655;DHT22;14278;50.784;4.630;2023-03-02T09:27:23;8.20;99.90
26655;DHT22;14278;50.784;4.630;2023-03-02T09:29:52;8.90;99.90
26655;DHT22;14278;50.784;4.630;2023-03-02T09:32:18;9.40;99.90
26655;DHT22;14278;50.784;4.630;2023-03-02T09:34:55;10.50;99.90
26655;DHT22;14278;50.784;4.630;2023-03-02T09:37:30;9.90;99.90
26655;DHT22;14278;50.784;4.630;2023-03-02T09:40:26;8.30;99.90
26655;DHT22;14278;50.784;4.630;2023-03-02T09:46:24;9.70;99.90
26655;DHT22;14278;50.784;4.630;2023-03-02T09:55:15;8.60;99.90
26655;DHT22;14278;50.784;4.630;2023-03-02T10:02:53;8.20;99.90
26655;DHT22;14278;50.784;4.630;2023-03-02T10:05:50;8.90;99.90
26655;DHT22;14278;50.784;4.630;2023-03-02T10:08:29;8.50;99.90
26655;DHT22;14278;50.784;4.630;2023-03-02T10:11:41;8.70;99.90
26655;DHT22;14278;50.784;4.630;2023-03-02T10:18:00;8.00;99.90
26655;DHT22;14278;50.784;4.630;2023-03-02T10:30:39;7.50;99.90
26655;DHT22;14278;50.784;4.630;2023-03-02T10:33:23;8.90;99.90
26655;DHT22;14278;50.784;4.630;2023-03-02T10:35:52;8.10;99.90
26655;DHT22;14278;50.784;4.630;2023-03-02T10:38:32;8.80;99.90
26655;DHT22;14278;50.784;4.630;2023-03-02T10:41:04;9.30;99.90
26655;DHT22;14278;50.784;4.630;2023-03-02T10:43:41;10.00;99.90
26655;DHT22;14278;50.784;4.630;2023-03-02T10:46:14;9.70;99.90
26655;DHT22;14278;50.784;4.630;2023-03-02T10:49:02;8.70;99.90
26655;DHT22;14278;50.784;4.630;2023-03-02T10:52:00;8.30;99.90
26655;DHT22;14278;50.784;4.630;2023-03-02T10:54:33;8.60;99.90
26655;DHT22;14278;50.784;4.630;2023-03-02T10:57:04;8.80;99.90
26655;DHT22;14278;50.784;4.630;2023-03-02T10:59:46;8.50;99.90
26655;DHT22;14278;50.784;4.630;2023-03-02T11:03:03;8.60;99.90
26655;DHT22;14278;50.784;4.630;2023-03-02T11:05:56;8.70;99.90
26655;DHT22;14278;50.784;4.630;2023-03-02T11:08:27;8.30;99.90
26655;DHT22;14278;50.784;4.630;2023-03-02T11:11:04;7.80;99.90
26655;DHT22;14278;50.784;4.630;2023-03-02T11:13:46;8.40;99.90
26655;DHT22;14278;50.784;4.630;2023-03-02T11:16:30;9.20;99.90
26655;DHT22;14278;50.784;4.630;2023-03-02T11:23:02;9.70;99.90
26655;DHT22;14278;50.784;4.630;2023-03-02T11:24:58;10.00;99.90
26655;DHT22;14278;50.784;4.630;2023-03-02T11:27:38;11.10;99.90
26655;DHT22;14278;50.784;4.630;2023-03-02T11:30:25;10.90;99.90
26655;DHT22;14278;50.784;4.630;2023-03-02T11:38:26;11.30;99.90
26655;DHT22;14278;50.784;4.630;2023-03-02T11:41:33;11.50;99.90
26655;DHT22;14278;50.784;4.630;2023-03-02T11:44:20;12.40;99.90
26655;DHT22;14278;50.784;4.630;2023-03-02T11:47:12;13.20;99.90
26655;DHT22;14278;50.784;4.630;2023-03-02T11:49:51;12.30;99.90
26655;DHT22;14278;50.784;4.630;2023-03-02T11:53:00;12.10;99.90
26655;DHT22;14278;50.784;4.630;2023-03-02T11:55:32;13.00;99.90
26655;DHT22;14278;50.784;4.630;2023-03-02T11:58:23;13.00;99.90
26655;DHT22;14278;50.784;4.630;2023-03-02T12:01:26;12.90;99.90
26655;DHT22;14278;50.784;4.630;2023-03-02T12:04:35;12.30;99.90
26655;DHT22;14278;50.784;4.630;2023-03-02T12:16:22;13.10;99.90
26655;DHT22;14278;50.784;4.630;2023-03-02T12:27:57;13.00;99.90
26655;DHT22;14278;50.784;4.630;2023-03-02T12:30:29;14.60;99.90
26655;DHT22;14278;50.784;4.630;2023-03-02T12:35:32;13.10;99.90
26655;DHT22;14278;50.784;4.630;2023-03-02T12:38:27;12.40;99.90
26655;DHT22;14278;50.784;4.630;2023-03-02T12:43:46;12.60;99.90
26655;DHT22;14278;50.784;4.630;2023-03-02T12:46:33;12.30;99.90
26655;DHT22;14278;50.784;4.630;2023-03-02T12:49:14;12.30;99.90
26655;DHT22;14278;50.784;4.630;2023-03-02T12:54:19;13.00;99.90
26655;DHT22;14278;50.784;4.630;2023-03-02T12:56:48;12.50;99.90
26655;DHT22;14278;50.784;4.630;2023-03-02T12:59:33;12.20;99.90
26655;DHT22;14278;50.784;4.630;2023-03-02T13:02:18;13.60;99.90
26655;DHT22;14278;50.784;4.630;2023-03-02T13:05:00;12.90;99.90
26655;DHT22;14278;50.784;4.630;2023-03-02T13:10:30;12.70;99.90
26655;DHT22;14278;50.784;4.630;2023-03-02T13:15:51;11.70;99.90
26655;DHT22;14278;50.784;4.630;2023-03-02T13:18:19;11.80;99.90
26655;DHT22;14278;50.784;4.630;2023-03-02T13:20:46;11.30;99.90
26655;DHT22;14278;50.784;4.630;2023-03-02T13:23:25;11.10;99.90
26655;DHT22;14278;50.784;4.630;2023-03-02T13:26:03;10.30;99.90
26655;DHT22;14278;50.784;4.630;2023-03-02T13:28:35;10.10;99.90
26655;DHT22;14278;50.784;4.630;2023-03-02T13:31:23;10.20;99.90
26655;DHT22;14278;50.784;4.630;2023-03-02T13:34:00;10.50;99.90
26655;DHT22;14278;50.784;4.630;2023-03-02T13:36:32;10.70;99.90
26655;DHT22;14278;50.784;4.630;2023-03-02T13:39:21;10.50;99.90
26655;DHT22;14278;50.784;4.630;2023-03-02T13:42:04;10.10;99.90
26655;DHT22;14278;50.784;4.630;2023-03-02T13:44:53;9.70;99.90
26655;DHT22;14278;50.784;4.630;2023-03-02T13:47:24;10.10;99.90
26655;DHT22;14278;50.784;4.630;2023-03-02T13:50:28;10.20;99.90
26655;DHT22;14278;50.784;4.630;2023-03-02T13:52:59;10.40;99.90
26655;DHT22;14278;50.784;4.630;2023-03-02T13:55:42;10.70;99.90
26655;DHT22;14278;50.784;4.630;2023-03-02T14:01:29;10.60;99.90
26655;DHT22;14278;50.784;4.630;2023-03-02T14:07:01;10.20;99.90
26655;DHT22;14278;50.784;4.630;2023-03-02T14:09:47;10.40;99.90
26655;DHT22;14278;50.784;4.630;2023-03-02T14:12:53;11.00;99.90
26655;DHT22;14278;50.784;4.630;2023-03-02T14:15:41;10.60;99.90
26655;DHT22;14278;50.784;4.630;2023-03-02T14:21:10;10.40;99.90
26655;DHT22;14278;50.784;4.630;2023-03-02T14:24:02;10.70;99.90
26655;DHT22;14278;50.784;4.630;2023-03-02T14:26:51;10.70;99.90
26655;DHT22;14278;50.784;4.630;2023-03-02T14:29:39;10.20;99.90
26655;DHT22;14278;50.784;4.630;2023-03-02T14:32:05;10.30;99.90
26655;DHT22;14278;50.784;4.630;2023-03-02T14:34:34;9.80;99.90
26655;DHT22;14278;50.784;4.630;2023-03-02T14:37:17;9.90;99.90
26655;DHT22;14278;50.784;4.630;2023-03-02T14:43:32;10.20;99.90
26655;DHT22;14278;50.784;4.630;2023-03-02T14:46:07;10.20;99.90
26655;DHT22;14278;50.784;4.630;2023-03-02T14:48:42;10.30;99.90
26655;DHT22;14278;50.784;4.630;2023-03-02T14:51:56;10.40;99.90
26655;DHT22;14278;50.784;4.630;2023-03-02T14:55:06;10.30;99.90
26655;DHT22;14278;50.784;4.630;2023-03-02T14:57:38;9.90;99.90
26655;DHT22;14278;50.784;4.630;2023-03-02T15:00:12;10.20;99.90
26655;DHT22;14278;50.784;4.630;2023-03-02T15:02:51;10.30;99.90
26655;DHT22;14278;50.784;4.630;2023-03-02T15:05:20;10.20;99.90
26655;DHT22;14278;50.784;4.630;2023-03-02T15:08:01;10.20;99.90
26655;DHT22;14278;50.784;4.630;2023-03-02T15:10:30;10.20;99.90
26655;DHT22;14278;50.784;4.630;2023-03-02T15:12:56;10.10;99.90
26655;DHT22;14278;50.784;4.630;2023-03-02T15:18:19;10.10;99.90
26655;DHT22;14278;50.784;4.630;2023-03-02T15:20:52;9.80;99.90
26655;DHT22;14278;50.784;4.630;2023-03-02T15:23:20;10.10;99.90
26655;DHT22;14278;50.784;4.630;2023-03-02T15:25:49;10.20;99.90
26655;DHT22;14278;50.784;4.630;2023-03-02T15:28:22;10.70;99.90
26655;DHT22;14278;50.784;4.630;2023-03-02T15:30:55;10.20;99.90
26655;DHT22;14278;50.784;4.630;2023-03-02T15:33:34;10.20;99.90
26655;DHT22;14278;50.784;4.630;2023-03-02T15:39:03;10.10;99.90
26655;DHT22;14278;50.784;4.630;2023-03-02T15:41:43;9.70;99.90
26655;DHT22;14278;50.784;4.630;2023-03-02T15:44:18;9.80;99.90
26655;DHT22;14278;50.784;4.630;2023-03-02T15:47:31;9.80;99.90
26655;DHT22;14278;50.784;4.630;2023-03-02T15:50:08;9.80;99.90
26655;DHT22;14278;50.784;4.630;2023-03-02T15:52:44;9.70;99.90
26655;DHT22;14278;50.784;4.630;2023-03-02T15:55:29;9.70;99.90
26655;DHT22;14278;50.784;4.630;2023-03-02T15:58:12;9.70;99.90
26655;DHT22;14278;50.784;4.630;2023-03-02T16:00:58;9.40;99.90
26655;DHT22;14278;50.784;4.630;2023-03-02T16:03:42;9.50;99.90
26655;DHT22;14278;50.784;4.630;2023-03-02T16:06:13;9.40;99.90
26655;DHT22;14278;50.784;4.630;2023-03-02T16:08:41;9.40;99.90
26655;DHT22;14278;50.784;4.630;2023-03-02T16:11:42;9.30;99.90
26655;DHT22;14278;50.784;4.630;2023-03-02T16:14:11;9.30;99.90
26655;DHT22;14278;50.784;4.630;2023-03-02T16:16:49;9.60;99.90
26655;DHT22;14278;50.784;4.630;2023-03-02T16:19:16;9.40;99.90
26655;DHT22;14278;50.784;4.630;2023-03-02T16:21:42;9.30;99.90
26655;DHT22;14278;50.784;4.630;2023-03-02T16:24:09;9.50;99.90
26655;DHT22;14278;50.784;4.630;2023-03-02T16:26:47;9.40;99.90
26655;DHT22;14278;50.784;4.630;2023-03-02T16:29:15;9.60;99.90
26655;DHT22;14278;50.784;4.630;2023-03-02T16:31:44;9.40;99.90
26655;DHT22;14278;50.784;4.630;2023-03-02T16:34:11;9.10;99.90
26655;DHT22;14278;50.784;4.630;2023-03-02T16:36:41;9.30;99.90
26655;DHT22;14278;50.784;4.630;2023-03-02T16:39:08;9.30;99.90
26655;DHT22;14278;50.784;4.630;2023-03-02T16:41:36;9.10;99.90
26655;DHT22;14278;50.784;4.630;2023-03-02T16:44:07;9.00;99.90
26655;DHT22;14278;50.784;4.630;2023-03-02T16:46:36;8.80;99.90
26655;DHT22;14278;50.784;4.630;2023-03-02T16:49:05;8.80;99.90
26655;DHT22;14278;50.784;4.630;2023-03-02T16:51:31;8.80;99.90
26655;DHT22;14278;50.784;4.630;2023-03-02T16:53:57;8.80;99.90
26655;DHT22;14278;50.784;4.630;2023-03-02T16:56:23;8.70;99.90
26655;DHT22;14278;50.784;4.630;2023-03-02T16:58:51;8.90;99.90
26655;DHT22;14278;50.784;4.630;2023-03-02T17:01:19;8.80;99.90
26655;DHT22;14278;50.784;4.630;2023-03-02T17:03:46;9.00;99.90
26655;DHT22;14278;50.784;4.630;2023-03-02T17:06:16;9.20;99.90
26655;DHT22;14278;50.784;4.630;2023-03-02T17:08:45;9.10;99.90
26655;DHT22;14278;50.784;4.630;2023-03-02T17:11:11;8.70;99.90
26655;DHT22;14278;50.784;4.630;2023-03-02T17:13:40;8.80;99.90
26655;DHT22;14278;50.784;4.630;2023-03-02T17:16:06;8.60;99.90
26655;DHT22;14278;50.784;4.630;2023-03-02T17:18:34;8.60;99.90
26655;DHT22;14278;50.784;4.630;2023-03-02T17:21:00;8.30;99.90
26655;DHT22;14278;50.784;4.630;2023-03-02T17:23:27;8.20;99.90
26655;DHT22;14278;50.784;4.630;2023-03-02T17:25:56;8.30;99.90
26655;DHT22;14278;50.784;4.630;2023-03-02T17:28:22;8.40;99.90
26655;DHT22;14278;50.784;4.630;2023-03-02T17:30:48;8.40;99.90
26655;DHT22;14278;50.784;4.630;2023-03-02T17:33:16;8.40;99.90
26655;DHT22;14278;50.784;4.630;2023-03-02T17:35:45;8.20;99.90
26655;DHT22;14278;50.784;4.630;2023-03-02T17:38:17;8.50;99.90
26655;DHT22;14278;50.784;4.630;2023-03-02T17:41:04;8.40;99.90
26655;DHT22;14278;50.784;4.630;2023-03-02T17:43:35;8.30;99.90
26655;DHT22;14278;50.784;4.630;2023-03-02T17:46:34;8.30;99.90
26655;DHT22;14278;50.784;4.630;2023-03-02T17:49:07;8.30;99.90
26655;DHT22;14278;50.784;4.630;2023-03-02T17:51:39;8.30;99.90
26655;DHT22;14278;50.784;4.630;2023-03-02T17:54:09;8.30;99.90
26655;DHT22;14278;50.784;4.630;2023-03-02T17:56:38;8.10;99.90
26655;DHT22;14278;50.784;4.630;2023-03-02T17:59:14;8.10;99.90
26655;DHT22;14278;50.784;4.630;2023-03-02T18:01:50;8.10;99.90
26655;DHT22;14278;50.784;4.630;2023-03-02T18:04:18;8.10;99.90
26655;DHT22;14278;50.784;4.630;2023-03-02T18:06:46;7.90;99.90
26655;DHT22;14278;50.784;4.630;2023-03-02T18:09:35;7.90;99.90
26655;DHT22;14278;50.784;4.630;2023-03-02T18:12:04;7.30;99.90
26655;DHT22;14278;50.784;4.630;2023-03-02T18:14:34;7.40;99.90
26655;DHT22;14278;50.784;4.630;2023-03-02T18:17:00;7.30;99.90
26655;DHT22;14278;50.784;4.630;2023-03-02T18:19:26;7.50;99.90
26655;DHT22;14278;50.784;4.630;2023-03-02T18:21:52;7.40;99.90
26655;DHT22;14278;50.784;4.630;2023-03-02T18:24:21;7.60;99.90
26655;DHT22;14278;50.784;4.630;2023-03-02T18:26:47;7.50;99.90
26655;DHT22;14278;50.784;4.630;2023-03-02T18:29:15;7.40;99.90
26655;DHT22;14278;50.784;4.630;2023-03-02T18:31:41;7.50;99.90
26655;DHT22;14278;50.784;4.630;2023-03-02T18:34:11;7.40;99.90
26655;DHT22;14278;50.784;4.630;2023-03-02T18:36:37;7.60;99.90
26655;DHT22;14278;50.784;4.630;2023-03-02T18:39:03;7.50;99.90
26655;DHT22;14278;50.784;4.630;2023-03-02T18:41:32;7.40;99.90
26655;DHT22;14278;50.784;4.630;2023-03-02T18:44:08;7.30;99.90
26655;DHT22;14278;50.784;4.630;2023-03-02T18:46:37;7.20;99.90
26655;DHT22;14278;50.784;4.630;2023-03-02T18:49:06;7.00;99.90
26655;DHT22;14278;50.784;4.630;2023-03-02T18:51:39;7.10;99.90
26655;DHT22;14278;50.784;4.630;2023-03-02T18:54:05;7.00;99.90
26655;DHT22;14278;50.784;4.630;2023-03-02T18:56:34;6.80;99.90
26655;DHT22;14278;50.784;4.630;2023-03-02T18:59:03;6.80;99.90
26655;DHT22;14278;50.784;4.630;2023-03-02T19:01:32;6.80;99.90
26655;DHT22;14278;50.784;4.630;2023-03-02T19:03:58;6.70;99.90
26655;DHT22;14278;50.784;4.630;2023-03-02T19:06:25;7.00;99.90
26655;DHT22;14278;50.784;4.630;2023-03-02T19:12:20;7.30;99.90
26655;DHT22;14278;50.784;4.630;2023-03-02T19:14:49;7.50;99.90
26655;DHT22;14278;50.784;4.630;2023-03-02T19:17:15;7.10;99.90
26655;DHT22;14278;50.784;4.630;2023-03-02T19:19:40;7.10;99.90
26655;DHT22;14278;50.784;4.630;2023-03-02T19:22:06;7.00;99.90
26655;DHT22;14278;50.784;4.630;2023-03-02T19:24:37;6.80;99.90
26655;DHT22;14278;50.784;4.630;2023-03-02T19:27:12;7.10;99.90
26655;DHT22;14278;50.784;4.630;2023-03-02T19:29:47;6.90;99.90
26655;DHT22;14278;50.784;4.630;2023-03-02T19:36:39;6.40;99.90
26655;DHT22;14278;50.784;4.630;2023-03-02T19:39:27;6.50;99.90
26655;DHT22;14278;50.784;4.630;2023-03-02T19:41:59;6.50;99.90
26655;DHT22;14278;50.784;4.630;2023-03-02T19:44:49;6.40;99.90
26655;DHT22;14278;50.784;4.630;2023-03-02T19:47:18;6.50;99.90
26655;DHT22;14278;50.784;4.630;2023-03-02T19:49:46;6.30;99.90
26655;DHT22;14278;50.784;4.630;2023-03-02T19:52:12;6.30;99.90
26655;DHT22;14278;50.784;4.630;2023-03-02T19:54:38;6.20;99.90
26655;DHT22;14278;50.784;4.630;2023-03-02T19:57:07;6.20;99.90
26655;DHT22;14278;50.784;4.630;2023-03-02T19:59:35;6.30;99.90
26655;DHT22;14278;50.784;4.630;2023-03-02T20:02:12;6.40;99.90
26655;DHT22;14278;50.784;4.630;2023-03-02T20:04:39;6.20;99.90
26655;DHT22;14278;50.784;4.630;2023-03-02T20:07:07;6.30;99.90
26655;DHT22;14278;50.784;4.630;2023-03-02T20:09:38;6.10;99.90
26655;DHT22;14278;50.784;4.630;2023-03-02T20:12:39;6.00;99.90
26655;DHT22;14278;50.784;4.630;2023-03-02T20:15:12;6.00;99.90
26655;DHT22;14278;50.784;4.630;2023-03-02T20:17:43;6.20;99.90
26655;DHT22;14278;50.784;4.630;2023-03-02T20:20:10;6.10;99.90
26655;DHT22;14278;50.784;4.630;2023-03-02T20:22:36;6.00;99.90
26655;DHT22;14278;50.784;4.630;2023-03-02T20:25:03;6.00;99.90
26655;DHT22;14278;50.784;4.630;2023-03-02T20:27:33;6.10;99.90
26655;DHT22;14278;50.784;4.630;2023-03-02T20:29:59;6.00;99.90
26655;DHT22;14278;50.784;4.630;2023-03-02T20:32:30;6.20;99.90
26655;DHT22;14278;50.784;4.630;2023-03-02T20:35:01;6.10;99.90
26655;DHT22;14278;50.784;4.630;2023-03-02T20:37:29;6.10;99.90
26655;DHT22;14278;50.784;4.630;2023-03-02T20:39:56;6.20;99.90
26655;DHT22;14278;50.784;4.630;2023-03-02T20:42:25;6.40;99.90
26655;DHT22;14278;50.784;4.630;2023-03-02T20:44:59;6.30;99.90
26655;DHT22;14278;50.784;4.630;2023-03-02T20:47:28;6.00;99.90
26655;DHT22;14278;50.784;4.630;2023-03-02T20:49:57;6.00;99.90
26655;DHT22;14278;50.784;4.630;2023-03-02T20:52:26;6.00;99.90
26655;DHT22;14278;50.784;4.630;2023-03-02T20:54:52;5.90;99.90
26655;DHT22;14278;50.784;4.630;2023-03-02T20:57:19;5.90;99.90
26655;DHT22;14278;50.784;4.630;2023-03-02T20:59:46;6.00;99.90
26655;DHT22;14278;50.784;4.630;2023-03-02T21:02:17;6.00;99.90
26655;DHT22;14278;50.784;4.630;2023-03-02T21:04:45;5.80;99.90
26655;DHT22;14278;50.784;4.630;2023-03-02T21:07:11;5.80;99.90
26655;DHT22;14278;50.784;4.630;2023-03-02T21:09:37;5.80;99.90
26655;DHT22;14278;50.784;4.630;2023-03-02T21:12:04;5.70;99.90
26655;DHT22;14278;50.784;4.630;2023-03-02T21:14:34;5.80;99.90
26655;DHT22;14278;50.784;4.630;2023-03-02T21:17:03;5.90;99.90
26655;DHT22;14278;50.784;4.630;2023-03-02T21:19:34;5.90;99.90
26655;DHT22;14278;50.784;4.630;2023-03-02T21:22:00;6.10;99.90
26655;DHT22;14278;50.784;4.630;2023-03-02T21:24:32;5.80;99.90
26655;DHT22;14278;50.784;4.630;2023-03-02T21:27:00;5.60;99.90
26655;DHT22;14278;50.784;4.630;2023-03-02T21:29:30;5.50;99.90
26655;DHT22;14278;50.784;4.630;2023-03-02T21:32:00;5.30;99.90
26655;DHT22;14278;50.784;4.630;2023-03-02T21:34:27;5.50;99.90
26655;DHT22;14278;50.784;4.630;2023-03-02T21:36:58;5.70;99.90
26655;DHT22;14278;50.784;4.630;2023-03-02T21:39:24;5.80;99.90
26655;DHT22;14278;50.784;4.630;2023-03-02T21:41:54;5.80;99.90
26655;DHT22;14278;50.784;4.630;2023-03-02T21:44:22;5.50;99.90